Time;durP1;ratioP1;P1;durP2;ratioP2;P2;SDS_P1;SDS_P2;PMS_P1;PMS_P2;Temp;Humidity;BMP_temperature;BMP_pressure;BME280_temperature;BME280_humidity;BME280_pressure;Samples;Min_cycle;Max_cycle;Signal;HPM_P1;HPM_P2
2023/08/31 00:02:03;;;;;;;8.50;6.20;;;15.30;31.60;;;;;;4989007;28;20534;-71
2023/08/31 00:04:30;;;;;;;9.07;6.60;;;15.30;31.50;;;;;;4989219;28;20520;-71
2023/08/31 00:06:57;;;;;;;9.37;6.47;;;15.30;31.40;;;;;;4992051;28;20465;-70
2023/08/31 00:09:24;;;;;;;8.47;5.57;;;15.40;31.40;;;;;;4992591;28;20539;-70
2023/08/31 00:11:50;;;;;;;10.60;5.63;;;15.50;31.40;;;;;;4989483;28;20460;-70
2023/08/31 00:14:19;;;;;;;7.77;6.50;;;15.50;31.30;;;;;;5019332;22;20522;-64
2023/08/31 00:16:46;;;;;;;9.20;6.00;;;15.60;31.30;;;;;;5029256;28;20459;-64
2023/08/31 00:19:14;;;;;;;8.97;6.43;;;15.60;31.10;;;;;;5031525;28;20455;-64
2023/08/31 00:21:41;;;;;;;7.57;6.40;;;15.60;31.20;;;;;;5031863;28;20457;-64
2023/08/31 00:24:09;;;;;;;7.73;5.70;;;15.70;31.50;;;;;;5033840;28;20873;-64
2023/08/31 00:26:42;;;;;;;8.03;6.37;;;15.70;31.50;;;;;;5031160;28;20542;-64
2023/08/31 00:29:10;;;;;;;11.00;5.60;;;15.70;31.30;;;;;;5032111;28;20475;-64
2023/08/31 00:31:38;;;;;;;8.97;6.50;;;15.60;31.10;;;;;;5034031;28;20501;-64
2023/08/31 00:34:06;;;;;;;7.50;6.27;;;15.60;31.30;;;;;;5020734;28;20486;-64
2023/08/31 00:36:33;;;;;;;11.37;6.50;;;15.60;31.40;;;;;;5034093;28;20467;-64
2023/08/31 00:39:05;;;;;;;7.00;5.83;;;15.60;31.30;;;;;;5037557;28;20820;-64
2023/08/31 00:41:32;;;;;;;8.40;6.77;;;15.60;31.30;;;;;;5031058;28;20521;-64
2023/08/31 00:43:59;;;;;;;8.30;6.03;;;15.60;31.30;;;;;;5028747;28;20483;-63
2023/08/31 00:46:27;;;;;;;8.00;6.20;;;15.50;31.30;;;;;;5030609;28;20455;-64
2023/08/31 00:48:56;;;;;;;8.50;6.70;;;15.50;31.30;;;;;;5033234;28;20514;-64
2023/08/31 00:51:23;;;;;;;8.53;6.67;;;15.60;31.30;;;;;;5031338;28;20550;-64
2023/08/31 00:53:53;;;;;;;6.47;4.90;;;15.60;31.90;;;;;;5029434;28;20513;-64
2023/08/31 00:56:20;;;;;;;7.50;5.53;;;15.60;31.40;;;;;;5029499;28;20459;-64
2023/08/31 00:58:47;;;;;;;8.80;5.60;;;15.60;31.40;;;;;;5034378;28;20451;-64
2023/08/31 01:01:23;;;;;;;7.93;5.63;;;15.60;31.40;;;;;;5028878;28;20483;-65
2023/08/31 01:04:00;;;;;;;8.87;5.87;;;15.60;31.50;;;;;;5033843;28;20820;-64
2023/08/31 01:06:37;;;;;;;8.13;5.30;;;15.60;31.60;;;;;;5028894;28;20493;-64
2023/08/31 01:09:11;;;;;;;6.87;4.83;;;15.60;32.20;;;;;;5026705;28;20530;-64
2023/08/31 01:11:50;;;;;;;6.60;4.83;;;15.60;31.70;;;;;;5024736;28;20462;-64
2023/08/31 01:14:19;;;;;;;7.50;4.83;;;15.60;31.90;;;;;;5024384;28;20505;-65
2023/08/31 01:16:49;;;;;;;7.77;5.10;;;15.60;31.80;;;;;;5027897;28;20463;-65
2023/08/31 01:19:35;;;;;;;6.13;4.90;;;15.60;31.90;;;;;;5032407;28;20487;-64
2023/08/31 01:22:10;;;;;;;8.80;5.00;;;15.60;32.40;;;;;;5028837;28;20459;-64
2023/08/31 01:24:38;;;;;;;8.43;4.47;;;15.60;32.20;;;;;;5027586;28;20478;-65
2023/08/31 01:27:06;;;;;;;7.43;4.93;;;15.60;32.20;;;;;;5033234;28;20867;-64
2023/08/31 01:29:32;;;;;;;6.70;4.00;;;15.50;32.20;;;;;;5033047;28;21039;-65
2023/08/31 01:31:59;;;;;;;8.50;4.90;;;15.50;32.30;;;;;;5029615;28;20478;-64
2023/08/31 01:34:26;;;;;;;7.00;4.07;;;15.50;32.30;;;;;;5028902;28;20475;-65
2023/08/31 01:36:59;;;;;;;6.30;3.97;;;15.50;32.40;;;;;;5029400;28;20985;-65
2023/08/31 01:39:34;;;;;;;5.73;3.73;;;15.50;32.10;;;;;;5028073;28;20501;-65
2023/08/31 01:42:06;;;;;;;5.00;2.90;;;15.50;31.80;;;;;;5026594;28;20458;-64
2023/08/31 01:44:35;;;;;;;7.53;3.77;;;15.40;31.60;;;;;;5029622;28;20475;-64
2023/08/31 01:47:05;;;;;;;7.70;3.73;;;15.40;31.40;;;;;;5029611;28;20462;-64
2023/08/31 01:49:37;;;;;;;5.90;4.10;;;15.30;31.50;;;;;;5026557;28;20858;-64
2023/08/31 01:52:04;;;;;;;5.77;3.97;;;15.30;31.70;;;;;;5024024;28;20466;-64
2023/08/31 01:54:31;;;;;;;6.53;4.50;;;15.30;32.00;;;;;;5028885;28;20478;-64
2023/08/31 01:56:57;;;;;;;5.90;3.90;;;15.20;32.20;;;;;;5030454;28;20462;-64
2023/08/31 01:59:26;;;;;;;6.60;4.20;;;15.20;32.50;;;;;;5030090;28;20455;-64
2023/08/31 02:01:53;;;;;;;6.83;3.47;;;15.20;32.70;;;;;;5029098;28;20516;-64
2023/08/31 02:04:20;;;;;;;5.07;3.20;;;15.20;32.80;;;;;;5028949;28;21025;-64
2023/08/31 02:06:46;;;;;;;5.80;3.57;;;15.20;33.00;;;;;;5029642;28;20473;-64
2023/08/31 02:09:13;;;;;;;6.67;4.10;;;15.10;32.90;;;;;;5024050;28;20514;-64
2023/08/31 02:11:40;;;;;;;5.50;3.73;;;15.20;32.90;;;;;;5024360;28;20467;-63
2023/08/31 02:14:07;;;;;;;7.47;4.50;;;15.10;33.00;;;;;;4990086;28;1072158;-64
2023/08/31 02:16:35;;;;;;;7.40;3.67;;;15.10;33.10;;;;;;5030601;28;20205;-64
2023/08/31 02:19:02;;;;;;;8.20;3.80;;;15.10;33.20;;;;;;5029525;28;21166;-63
2023/08/31 02:21:28;;;;;;;7.60;3.87;;;15.00;33.30;;;;;;5029133;28;20459;-64
2023/08/31 02:23:55;;;;;;;9.47;4.00;;;15.00;33.30;;;;;;5029984;28;20486;-63
2023/08/31 02:26:22;;;;;;;8.40;4.00;;;15.00;33.50;;;;;;5029554;28;20470;-64
2023/08/31 02:28:49;;;;;;;7.40;4.60;;;15.00;33.60;;;;;;5028647;28;20488;-64
2023/08/31 02:31:19;;;;;;;5.47;3.30;;;15.00;33.60;;;;;;5029432;28;20498;-64
2023/08/31 02:33:47;;;;;;;7.70;4.20;;;14.90;33.80;;;;;;5030222;28;20479;-63
2023/08/31 02:36:14;;;;;;;6.37;3.80;;;14.80;33.80;;;;;;5029278;28;20550;-63
2023/08/31 02:38:41;;;;;;;7.30;4.13;;;14.80;33.90;;;;;;5028687;28;20462;-63
2023/08/31 02:41:08;;;;;;;7.43;4.03;;;14.70;34.00;;;;;;5029094;28;20459;-64
2023/08/31 02:43:34;;;;;;;5.93;3.93;;;14.70;34.10;;;;;;5024358;28;20478;-64
2023/08/31 02:46:02;;;;;;;9.10;4.10;;;14.70;34.30;;;;;;5024542;28;21165;-63
2023/08/31 02:48:29;;;;;;;6.33;4.03;;;14.70;34.30;;;;;;5024029;28;20461;-64
2023/08/31 02:50:57;;;;;;;8.00;4.40;;;14.70;34.40;;;;;;5026472;28;20486;-64
2023/08/31 02:53:24;;;;;;;8.30;5.00;;;14.70;34.60;;;;;;5026254;28;20494;-64
2023/08/31 02:55:51;;;;;;;7.93;4.60;;;14.70;34.60;;;;;;5028054;28;20463;-63
2023/08/31 02:58:19;;;;;;;6.70;4.47;;;14.70;34.70;;;;;;5029560;28;20509;-64
2023/08/31 03:00:47;;;;;;;6.73;5.03;;;14.70;34.80;;;;;;5029063;28;20479;-63
2023/08/31 03:03:14;;;;;;;7.30;5.20;;;14.60;34.70;;;;;;5028345;28;20478;-63
2023/08/31 03:05:41;;;;;;;8.83;4.67;;;14.60;35.00;;;;;;5027856;28;20474;-63
2023/08/31 03:08:09;;;;;;;8.00;4.60;;;14.60;34.90;;;;;;5029356;28;20463;-63
2023/08/31 03:10:36;;;;;;;9.27;4.63;;;14.70;35.00;;;;;;5029797;28;20520;-63
2023/08/31 03:13:03;;;;;;;6.20;4.30;;;14.60;34.90;;;;;;5032541;28;20483;-63
2023/08/31 03:15:30;;;;;;;7.13;4.37;;;14.60;35.00;;;;;;5030705;28;20828;-63
2023/08/31 03:17:57;;;;;;;8.20;4.50;;;14.60;35.50;;;;;;5032339;28;20459;-63
2023/08/31 03:20:24;;;;;;;5.93;3.80;;;14.60;35.00;;;;;;5027266;28;20459;-64
2023/08/31 03:22:50;;;;;;;6.57;4.37;;;14.60;35.10;;;;;;5023902;28;20463;-64
2023/08/31 03:25:19;;;;;;;7.57;4.77;;;14.60;35.10;;;;;;5027430;28;20459;-63
2023/08/31 03:27:45;;;;;;;7.00;4.23;;;14.60;35.20;;;;;;5026424;28;20466;-65
2023/08/31 03:30:13;;;;;;;8.17;4.93;;;14.60;35.30;;;;;;5027179;28;20991;-64
2023/08/31 03:32:39;;;;;;;6.47;4.50;;;14.60;35.40;;;;;;5008457;28;20464;-64
2023/08/31 03:35:08;;;;;;;6.83;4.50;;;14.60;35.40;;;;;;5008462;28;20467;-64
2023/08/31 03:37:34;;;;;;;7.37;5.07;;;14.70;35.60;;;;;;5008914;28;20991;-64
2023/08/31 03:40:03;;;;;;;5.87;4.10;;;14.70;35.70;;;;;;5010020;28;20452;-64
2023/08/31 03:42:31;;;;;;;8.63;4.10;;;14.70;35.70;;;;;;5003315;28;20499;-64
2023/08/31 03:44:57;;;;;;;5.63;3.67;;;14.70;35.70;;;;;;5009050;28;21006;-64
2023/08/31 03:47:24;;;;;;;7.60;3.50;;;14.70;35.60;;;;;;5003574;28;20472;-64
2023/08/31 03:49:51;;;;;;;6.13;3.30;;;14.70;35.50;;;;;;5008744;28;20495;-64
2023/08/31 03:52:18;;;;;;;6.80;3.50;;;14.70;35.50;;;;;;5008757;28;20486;-64
2023/08/31 03:54:44;;;;;;;6.30;4.20;;;14.60;35.50;;;;;;5007917;28;20479;-64
2023/08/31 03:57:11;;;;;;;5.40;3.37;;;14.60;35.60;;;;;;5006153;28;20496;-64
2023/08/31 03:59:39;;;;;;;7.30;3.67;;;14.60;35.60;;;;;;5001697;28;20456;-64
2023/08/31 04:02:06;;;;;;;6.20;3.60;;;14.60;35.70;;;;;;5008400;28;21119;-63
2023/08/31 04:04:33;;;;;;;7.30;4.33;;;14.60;35.70;;;;;;5007775;28;20619;-63
2023/08/31 04:07:00;;;;;;;6.13;3.97;;;14.60;35.80;;;;;;5006927;28;20464;-64
2023/08/31 04:09:27;;;;;;;6.13;3.67;;;14.60;35.80;;;;;;5008884;28;20467;-64
2023/08/31 04:11:54;;;;;;;5.50;3.27;;;14.60;35.80;;;;;;5006638;28;20489;-64
2023/08/31 04:14:20;;;;;;;6.23;3.83;;;14.60;35.90;;;;;;5007219;28;20495;-63
2023/08/31 04:16:50;;;;;;;6.37;4.13;;;14.60;36.00;;;;;;5009787;28;20456;-64
2023/08/31 04:19:17;;;;;;;8.57;3.77;;;14.70;36.10;;;;;;5008514;28;20464;-64
2023/08/31 04:21:44;;;;;;;7.40;4.10;;;14.70;36.00;;;;;;5008561;28;20460;-64
2023/08/31 04:24:10;;;;;;;6.57;3.67;;;14.70;36.10;;;;;;5008523;28;20897;-63
2023/08/31 04:26:37;;;;;;;7.50;4.30;;;14.70;36.20;;;;;;5006998;28;20456;-64
2023/08/31 04:29:05;;;;;;;6.43;4.17;;;14.70;35.90;;;;;;5008721;28;20823;-63
2023/08/31 04:31:32;;;;;;;5.77;3.57;;;14.70;36.00;;;;;;5016692;28;21415;-64
2023/08/31 04:34:00;;;;;;;5.60;3.47;;;14.70;36.00;;;;;;5022178;28;20480;-63
2023/08/31 04:36:27;;;;;;;5.67;3.90;;;14.70;36.00;;;;;;5028937;28;20462;-64
2023/08/31 04:38:53;;;;;;;6.17;3.57;;;14.70;36.00;;;;;;5031547;28;20458;-64
2023/08/31 04:41:20;;;;;;;7.63;4.33;;;14.70;35.90;;;;;;5030087;28;20821;-64
2023/08/31 04:43:48;;;;;;;6.13;3.93;;;14.70;36.00;;;;;;5032050;28;20470;-64
2023/08/31 04:46:15;;;;;;;5.40;3.43;;;14.70;36.00;;;;;;5031463;28;20489;-64
2023/08/31 04:48:42;;;;;;;7.00;4.20;;;14.70;35.90;;;;;;5030159;28;20477;-64
2023/08/31 04:51:28;;;;;;;7.27;4.10;;;14.70;36.10;;;;;;5029776;28;21000;-64
2023/08/31 04:53:55;;;;;;;6.87;4.03;;;14.70;36.10;;;;;;5029420;28;20847;-63
2023/08/31 04:56:22;;;;;;;5.80;3.80;;;14.70;35.90;;;;;;5034468;28;20473;-64
2023/08/31 04:58:48;;;;;;;6.73;4.00;;;14.70;36.00;;;;;;5032390;28;20454;-64
2023/08/31 05:01:15;;;;;;;6.10;4.40;;;14.70;36.00;;;;;;5031051;28;20475;-64
2023/08/31 05:03:42;;;;;;;8.93;4.00;;;14.70;36.00;;;;;;5035159;28;20483;-63
2023/08/31 05:06:10;;;;;;;7.03;4.70;;;14.70;35.90;;;;;;5028228;28;20467;-64
2023/08/31 05:08:38;;;;;;;5.73;4.03;;;14.70;35.80;;;;;;5031117;28;20466;-64
2023/08/31 05:11:05;;;;;;;5.87;3.90;;;14.70;35.80;;;;;;5030237;28;21261;-64
2023/08/31 05:13:31;;;;;;;7.20;4.50;;;14.70;35.80;;;;;;5030328;28;20491;-64
2023/08/31 05:15:58;;;;;;;8.00;4.97;;;14.80;35.80;;;;;;5030984;28;21041;-64
2023/08/31 05:18:25;;;;;;;8.20;4.70;;;14.80;35.70;;;;;;5025402;28;20459;-64
2023/08/31 05:20:51;;;;;;;13.10;4.33;;;14.80;36.10;;;;;;5031137;28;20451;-64
2023/08/31 05:23:20;;;;;;;9.40;3.73;;;14.90;35.50;;;;;;5029237;28;20963;-64
2023/08/31 05:25:47;;;;;;;7.23;4.23;;;15.00;35.40;;;;;;5027195;28;21140;-64
2023/08/31 05:28:13;;;;;;;6.43;4.23;;;15.10;35.40;;;;;;5028378;28;20478;-64
2023/08/31 05:30:49;;;;;;;6.10;3.80;;;15.20;35.20;;;;;;5025833;28;20494;-64
2023/08/31 05:33:16;;;;;;;6.10;3.87;;;15.30;35.20;;;;;;5028142;28;20491;-64
2023/08/31 05:35:42;;;;;;;9.00;4.20;;;15.40;34.80;;;;;;5028282;28;20979;-64
2023/08/31 05:38:09;;;;;;;6.60;4.40;;;15.50;34.70;;;;;;5031079;28;20495;-64
2023/08/31 05:40:37;;;;;;;9.30;4.00;;;15.70;35.10;;;;;;5023490;28;20459;-64
2023/08/31 05:43:04;;;;;;;7.50;4.60;;;16.00;35.00;;;;;;5028585;28;20482;-65
2023/08/31 05:45:33;;;;;;;5.37;3.90;;;16.20;34.10;;;;;;5029298;28;20459;-64
2023/08/31 05:48:00;;;;;;;8.30;3.77;;;16.20;33.40;;;;;;5029423;28;20974;-64
2023/08/31 05:50:27;;;;;;;5.50;3.57;;;16.30;33.00;;;;;;5028835;28;20483;-64
2023/08/31 05:52:54;;;;;;;7.10;4.50;;;16.40;32.40;;;;;;5029369;28;20490;-64
2023/08/31 05:55:21;;;;;;;8.13;4.23;;;16.50;31.90;;;;;;5029998;28;20923;-64
2023/08/31 05:57:49;;;;;;;8.97;4.30;;;16.60;31.20;;;;;;5030087;28;20455;-64
2023/08/31 06:00:17;;;;;;;6.00;4.00;;;16.60;30.80;;;;;;5023095;28;20463;-65
2023/08/31 06:02:44;;;;;;;6.77;3.63;;;16.70;30.50;;;;;;5029839;28;20455;-65
2023/08/31 06:05:12;;;;;;;6.20;3.40;;;17.70;30.00;;;;;;5030009;28;21002;-65
2023/08/31 06:07:40;;;;;;;5.90;3.73;;;19.50;25.10;;;;;;5028046;28;20524;-65
2023/08/31 06:10:07;;;;;;;5.53;3.00;;;21.20;19.20;;;;;;5029575;28;20870;-65
2023/08/31 06:12:34;;;;;;;5.23;3.17;;;22.00;16.00;;;;;;5029838;28;20463;-65
2023/08/31 06:15:02;;;;;;;5.50;3.10;;;21.60;15.70;;;;;;5029305;28;20459;-66
2023/08/31 06:17:29;;;;;;;5.50;3.17;;;21.00;16.30;;;;;;5028977;28;20505;-65
2023/08/31 06:19:56;;;;;;;4.87;2.90;;;20.50;16.50;;;;;;5027172;28;20833;-67
2023/08/31 06:22:24;;;;;;;5.37;3.40;;;20.10;17.20;;;;;;5028592;28;20466;-68
2023/08/31 06:24:51;;;;;;;6.07;3.17;;;19.70;17.90;;;;;;5026129;28;20980;-66
2023/08/31 06:27:18;;;;;;;6.67;3.47;;;19.40;18.70;;;;;;5028560;28;20461;-67
2023/08/31 06:29:45;;;;;;;5.30;3.07;;;19.20;19.00;;;;;;5024407;28;20505;-66
2023/08/31 06:32:13;;;;;;;5.43;3.10;;;19.00;19.60;;;;;;5020313;28;20471;-66
2023/08/31 06:34:39;;;;;;;7.47;3.40;;;18.70;20.30;;;;;;5027837;28;20475;-66
2023/08/31 06:37:06;;;;;;;5.70;3.10;;;18.60;21.00;;;;;;5024728;28;20482;-66
2023/08/31 06:39:33;;;;;;;5.47;3.20;;;18.40;21.50;;;;;;5026013;28;20466;-66
2023/08/31 06:42:00;;;;;;;6.60;3.40;;;18.30;21.90;;;;;;5025039;28;20455;-66
2023/08/31 06:44:27;;;;;;;7.17;3.80;;;18.10;22.40;;;;;;5036487;23;20795;-65
2023/08/31 06:46:53;;;;;;;5.63;2.93;;;18.00;22.70;;;;;;4980106;28;20481;-66
2023/08/31 06:49:22;;;;;;;6.40;3.50;;;18.00;23.00;;;;;;4987315;28;20472;-64
2023/08/31 06:51:49;;;;;;;5.70;3.40;;;17.90;23.40;;;;;;4990417;28;20502;-64
2023/08/31 06:54:15;;;;;;;6.90;3.30;;;17.80;23.60;;;;;;4985714;28;20484;-66
2023/08/31 06:56:43;;;;;;;5.57;3.27;;;17.70;24.00;;;;;;4985629;28;21200;-65
2023/08/31 06:59:09;;;;;;;5.40;2.53;;;17.70;24.40;;;;;;4988013;28;20950;-66
2023/08/31 07:01:36;;;;;;;6.70;3.30;;;17.80;24.30;;;;;;5000330;28;20460;-66
2023/08/31 07:04:04;;;;;;;7.30;2.97;;;17.90;24.50;;;;;;5007796;28;20468;-65
2023/08/31 07:06:34;;;;;;;6.70;3.53;;;17.90;23.70;;;;;;5008261;28;20463;-66
2023/08/31 07:09:01;;;;;;;8.17;3.87;;;17.80;23.70;;;;;;5003884;28;20452;-66
2023/08/31 07:11:28;;;;;;;7.17;3.53;;;17.70;23.70;;;;;;5007665;28;20487;-64
2023/08/31 07:13:54;;;;;;;5.10;3.07;;;17.60;23.80;;;;;;5003901;28;20491;-64
2023/08/31 07:16:21;;;;;;;7.77;3.40;;;17.60;23.90;;;;;;5003860;28;20467;-64
2023/08/31 07:18:48;;;;;;;7.77;3.27;;;17.50;23.80;;;;;;4998988;28;20461;-64
2023/08/31 07:21:14;;;;;;;7.80;4.07;;;17.60;24.00;;;;;;4998916;28;20472;-65
2023/08/31 07:23:42;;;;;;;7.50;3.33;;;17.60;24.20;;;;;;5005307;28;20483;-65
2023/08/31 07:26:09;;;;;;;6.80;4.00;;;17.60;24.30;;;;;;4999978;28;20461;-67
2023/08/31 07:28:36;;;;;;;7.30;3.47;;;17.70;24.40;;;;;;5006215;28;20464;-67
2023/08/31 07:31:04;;;;;;;7.03;3.87;;;17.70;24.20;;;;;;4999484;28;21192;-64
2023/08/31 07:33:32;;;;;;;6.20;3.60;;;17.70;24.20;;;;;;5007223;28;20537;-64
2023/08/31 07:35:59;;;;;;;6.80;3.47;;;17.70;24.10;;;;;;5001385;28;20468;-64
2023/08/31 07:38:26;;;;;;;6.80;3.10;;;17.60;24.60;;;;;;5000655;28;20991;-64
2023/08/31 07:40:54;;;;;;;6.30;3.50;;;17.50;24.30;;;;;;5006794;28;20464;-64
2023/08/31 07:43:21;;;;;;;6.53;3.70;;;17.50;24.60;;;;;;5008012;28;20472;-64
2023/08/31 07:45:48;;;;;;;5.50;2.50;;;17.50;24.80;;;;;;4994224;28;20468;-66
2023/08/31 07:48:15;;;;;;;9.73;3.10;;;17.60;24.80;;;;;;4997023;28;20551;-67
2023/08/31 07:50:42;;;;;;;7.07;3.80;;;17.70;24.30;;;;;;5004381;28;20479;-67
2023/08/31 07:53:09;;;;;;;6.10;2.83;;;17.80;24.10;;;;;;5008252;28;20498;-67
2023/08/31 07:55:36;;;;;;;5.83;3.07;;;17.90;23.80;;;;;;5002320;28;20463;-67
2023/08/31 07:58:04;;;;;;;6.27;3.10;;;18.00;23.10;;;;;;5002596;28;20491;-64
2023/08/31 08:00:31;;;;;;;7.37;2.93;;;18.00;23.00;;;;;;5000511;28;20465;-64
2023/08/31 08:02:58;;;;;;;6.80;2.50;;;18.00;23.20;;;;;;4998290;28;20487;-64
2023/08/31 08:05:24;;;;;;;5.60;2.70;;;18.10;23.10;;;;;;5006265;28;20464;-64
2023/08/31 08:07:51;;;;;;;6.97;2.77;;;18.30;22.80;;;;;;5004028;28;20456;-64
2023/08/31 08:10:18;;;;;;;9.57;3.30;;;18.50;21.60;;;;;;5005507;28;21268;-64
2023/08/31 08:12:45;;;;;;;9.23;3.80;;;18.60;21.90;;;;;;5007831;28;20484;-65
2023/08/31 08:15:14;;;;;;;6.07;3.00;;;18.50;20.60;;;;;;5003264;28;20468;-66
2023/08/31 08:17:40;;;;;;;8.87;3.53;;;18.50;20.20;;;;;;5003010;28;20468;-66
2023/08/31 08:20:09;;;;;;;6.37;2.83;;;18.50;20.50;;;;;;5004847;28;20478;-63
2023/08/31 08:22:36;;;;;;;5.27;2.50;;;18.80;20.40;;;;;;5003659;28;20984;-63
2023/08/31 08:25:03;;;;;;;6.17;2.97;;;19.10;19.70;;;;;;5006393;28;20527;-64
2023/08/31 08:27:31;;;;;;;6.83;3.10;;;19.20;17.80;;;;;;5010339;28;20808;-64
2023/08/31 08:29:58;;;;;;;5.83;2.87;;;19.30;17.30;;;;;;5005433;28;20543;-64
2023/08/31 08:32:26;;;;;;;8.27;3.23;;;19.30;16.70;;;;;;5001354;28;20828;-64
2023/08/31 08:34:53;;;;;;;6.13;2.83;;;19.80;15.90;;;;;;5010470;28;20840;-64
2023/08/31 08:37:20;;;;;;;7.03;2.37;;;20.10;15.30;;;;;;5005963;28;20464;-66
2023/08/31 08:39:49;;;;;;;5.80;3.03;;;20.30;15.00;;;;;;5007971;28;20512;-65
2023/08/31 08:42:18;;;;;;;6.17;2.37;;;20.60;14.10;;;;;;5007723;28;20541;-65
2023/08/31 08:44:46;;;;;;;6.87;2.50;;;20.60;13.80;;;;;;5002033;28;20488;-65
2023/08/31 08:47:13;;;;;;;8.00;2.50;;;20.90;13.30;;;;;;5002785;28;20471;-65
2023/08/31 08:49:41;;;;;;;8.20;3.23;;;21.70;12.50;;;;;;5008524;28;20464;-65
2023/08/31 08:52:08;;;;;;;5.57;2.27;;;22.70;10.30;;;;;;5002355;28;20487;-65
2023/08/31 08:54:36;;;;;;;4.70;1.87;;;24.40;7.30;;;;;;5009648;28;20480;-65
2023/08/31 08:57:03;;;;;;;5.47;2.10;;;26.20;3.60;;;;;;5002234;28;20470;-65
2023/08/31 08:59:30;;;;;;;7.00;2.67;;;27.80;1.00;;;;;;5010458;28;20546;-66
2023/08/31 09:01:57;;;;;;;5.60;1.90;;;30.70;1.00;;;;;;5002918;28;20467;-66
2023/08/31 09:04:24;;;;;;;5.00;2.10;;;33.60;1.00;;;;;;5006001;28;20498;-65
2023/08/31 09:06:53;;;;;;;5.30;2.23;;;35.70;1.00;;;;;;5003235;28;20472;-65
2023/08/31 09:09:19;;;;;;;5.47;2.23;;;35.60;1.00;;;;;;5010369;28;20464;-64
2023/08/31 09:11:46;;;;;;;6.23;2.10;;;34.40;1.00;;;;;;5001071;28;20523;-65
2023/08/31 09:14:17;;;;;;;5.50;1.70;;;33.10;1.00;;;;;;4999979;28;20484;-64
2023/08/31 09:16:45;;;;;;;5.73;2.07;;;32.10;1.00;;;;;;5010077;28;20979;-65
2023/08/31 09:19:20;;;;;;;5.60;1.90;;;31.10;1.00;;;;;;5007850;28;20460;-65
2023/08/31 09:21:48;;;;;;;6.63;2.30;;;29.80;1.00;;;;;;5007250;28;20491;-67
2023/08/31 09:24:17;;;;;;;4.90;2.20;;;28.60;1.00;;;;;;5003799;28;20480;-67
2023/08/31 09:26:45;;;;;;;6.20;1.87;;;27.60;1.00;;;;;;5006152;28;20889;-65
2023/08/31 09:29:12;;;;;;;6.13;1.70;;;26.90;1.00;;;;;;5008909;28;21023;-65
2023/08/31 09:31:39;;;;;;;7.90;2.50;;;26.60;1.00;;;;;;5008186;28;20476;-65
2023/08/31 09:34:05;;;;;;;4.97;2.37;;;26.30;1.00;;;;;;5007363;28;20860;-65
2023/08/31 09:36:32;;;;;;;6.00;2.47;;;26.00;1.00;;;;;;5007088;28;20616;-64
2023/08/31 09:38:59;;;;;;;9.13;2.47;;;25.40;1.00;;;;;;5005028;28;20876;-65
2023/08/31 09:41:27;;;;;;;7.77;2.30;;;24.90;1.00;;;;;;5005612;28;20460;-67
2023/08/31 09:43:54;;;;;;;6.70;1.90;;;24.40;1.00;;;;;;5010109;28;20509;-68
2023/08/31 09:46:21;;;;;;;5.03;1.80;;;23.90;1.00;;;;;;5006355;28;20495;-68
2023/08/31 09:48:49;;;;;;;5.80;2.10;;;24.40;1.00;;;;;;5004717;28;20534;-67
2023/08/31 09:51:19;;;;;;;5.60;2.10;;;24.20;1.00;;;;;;5008078;28;20992;-67
2023/08/31 09:53:49;;;;;;;3.90;1.50;;;23.70;1.00;;;;;;5006210;28;20491;-67
2023/08/31 09:56:21;;;;;;;8.43;2.40;;;23.60;1.00;;;;;;4999601;28;20564;-67
2023/08/31 09:58:50;;;;;;;5.30;1.87;;;24.30;1.00;;;;;;5001899;28;20456;-67
2023/08/31 10:01:18;;;;;;;5.83;1.93;;;26.00;1.00;;;;;;5004529;28;20475;-67
2023/08/31 10:03:45;;;;;;;4.87;2.20;;;28.80;1.00;;;;;;4998753;28;20484;-66
2023/08/31 10:06:12;;;;;;;6.60;1.80;;;31.40;1.00;;;;;;5000921;28;20470;-66
2023/08/31 10:08:43;;;;;;;5.43;2.13;;;33.30;1.00;;;;;;5000584;28;20977;-67
2023/08/31 10:11:12;;;;;;;6.43;1.80;;;35.60;1.00;;;;;;4996229;28;20473;-68
2023/08/31 10:13:40;;;;;;;5.47;1.80;;;37.40;1.00;;;;;;4999705;28;21003;-69
2023/08/31 10:16:08;;;;;;;4.37;1.80;;;38.70;1.00;;;;;;4997567;28;20972;-66
2023/08/31 10:18:36;;;;;;;4.53;1.90;;;38.80;1.00;;;;;;5006420;28;20464;-66
2023/08/31 10:21:04;;;;;;;5.03;1.77;;;38.30;1.00;;;;;;5006720;28;20495;-66
2023/08/31 10:23:30;;;;;;;4.60;1.97;;;36.10;1.00;;;;;;5005048;28;20516;-66
2023/08/31 10:26:07;;;;;;;4.67;1.73;;;35.10;1.00;;;;;;5006216;28;20460;-66
2023/08/31 10:28:41;;;;;;;9.13;1.87;;;34.10;1.00;;;;;;5004787;28;20448;-67
2023/08/31 10:31:10;;;;;;;6.90;1.77;;;34.60;1.00;;;;;;5002098;28;20473;-66
2023/08/31 10:33:42;;;;;;;5.00;1.63;;;35.30;1.00;;;;;;5005215;28;20479;-68
2023/08/31 10:36:14;;;;;;;6.03;1.93;;;35.50;1.00;;;;;;5007964;28;20470;-68
2023/08/31 10:38:43;;;;;;;6.57;2.47;;;35.30;1.00;;;;;;5007069;28;20460;-68
2023/08/31 10:41:20;;;;;;;5.27;2.13;;;36.20;1.00;;;;;;4999244;28;20471;-68
2023/08/31 10:43:49;;;;;;;5.23;2.00;;;36.60;1.00;;;;;;4998622;28;20488;-68
2023/08/31 10:46:19;;;;;;;5.37;2.20;;;36.00;1.00;;;;;;5001750;28;21016;-68
2023/08/31 10:48:53;;;;;;;5.63;2.10;;;35.80;1.00;;;;;;5003274;28;20464;-68
2023/08/31 10:51:23;;;;;;;6.07;2.17;;;36.90;1.00;;;;;;5004115;28;20958;-68
2023/08/31 10:53:50;;;;;;;5.13;2.00;;;37.80;1.00;;;;;;5001918;28;21261;-68
2023/08/31 10:56:17;;;;;;;4.70;1.93;;;38.30;1.00;;;;;;5007611;28;20471;-68
2023/08/31 10:58:55;;;;;;;5.47;2.27;;;38.60;1.00;;;;;;5000613;28;20464;-68
2023/08/31 11:01:53;;;;;;;4.97;1.97;;;38.00;1.00;;;;;;4999798;28;20476;-68
2023/08/31 11:04:21;;;;;;;4.70;1.80;;;36.10;1.00;;;;;;5000834;28;20569;-68
2023/08/31 11:06:48;;;;;;;4.30;1.90;;;34.50;1.00;;;;;;4999586;28;20464;-68
2023/08/31 11:09:20;;;;;;;6.13;1.97;;;33.00;1.00;;;;;;5001500;28;21032;-68
2023/08/31 11:11:46;;;;;;;7.10;2.20;;;31.60;1.00;;;;;;5003585;28;20470;-68
2023/08/31 11:14:13;;;;;;;5.97;2.03;;;30.30;1.00;;;;;;5007873;28;20476;-68
2023/08/31 11:16:40;;;;;;;5.43;2.27;;;29.40;1.00;;;;;;5005331;28;20472;-68
2023/08/31 11:19:08;;;;;;;4.10;1.80;;;28.60;1.00;;;;;;5008539;28;20463;-68
2023/08/31 11:21:37;;;;;;;6.60;2.00;;;28.10;1.00;;;;;;5001920;28;20462;-68
2023/08/31 11:24:04;;;;;;;5.33;1.73;;;27.60;1.00;;;;;;5006200;28;20491;-68
2023/08/31 11:26:33;;;;;;;4.37;2.30;;;27.00;1.00;;;;;;5004040;28;20465;-68
2023/08/31 11:28:59;;;;;;;4.67;1.90;;;26.40;1.00;;;;;;5005949;28;21040;-68
2023/08/31 11:31:27;;;;;;;6.13;2.27;;;26.00;1.00;;;;;;5003540;28;20473;-67
2023/08/31 11:33:55;;;;;;;6.70;2.30;;;25.50;1.00;;;;;;5001264;28;20483;-67
2023/08/31 11:36:25;;;;;;;4.30;1.73;;;25.10;1.00;;;;;;5001405;28;20468;-67
2023/08/31 11:38:52;;;;;;;5.60;1.97;;;24.80;1.00;;;;;;5000778;28;20468;-68
2023/08/31 11:41:18;;;;;;;6.80;2.10;;;24.50;1.00;;;;;;5003384;28;20464;-67
2023/08/31 11:43:45;;;;;;;6.77;2.20;;;24.30;1.00;;;;;;5002563;28;20848;-67
2023/08/31 11:46:12;;;;;;;6.60;2.20;;;24.10;1.00;;;;;;5001711;28;20469;-67
2023/08/31 11:48:40;;;;;;;5.80;2.20;;;24.00;1.00;;;;;;5001494;28;21150;-67
2023/08/31 11:51:07;;;;;;;6.43;2.60;;;23.80;1.00;;;;;;5005004;28;20464;-68
2023/08/31 11:53:35;;;;;;;5.77;2.37;;;23.60;1.00;;;;;;5006688;28;20538;-67
2023/08/31 11:56:03;;;;;;;4.73;2.27;;;23.40;1.00;;;;;;5006033;28;20473;-68
2023/08/31 11:58:30;;;;;;;6.33;2.50;;;23.30;1.00;;;;;;5003761;28;21377;-68
2023/08/31 12:00:59;;;;;;;6.50;2.33;;;23.20;1.00;;;;;;5000119;28;20475;-68
2023/08/31 12:03:26;;;;;;;4.37;1.77;;;23.10;1.00;;;;;;5003046;28;20479;-68
2023/08/31 12:05:57;;;;;;;9.87;3.30;;;23.00;1.00;;;;;;5004417;28;20499;-68
2023/08/31 12:08:28;;;;;;;5.40;2.23;;;23.00;1.00;;;;;;5003147;28;21039;-68
2023/08/31 12:10:56;;;;;;;4.57;1.67;;;23.00;1.00;;;;;;4999978;28;20952;-68
2023/08/31 12:13:28;;;;;;;5.70;2.00;;;22.90;1.00;;;;;;4999669;28;20549;-68
2023/08/31 12:15:55;;;;;;;6.20;1.80;;;22.90;1.00;;;;;;5001043;28;20470;-67
2023/08/31 12:18:23;;;;;;;6.37;2.27;;;23.00;1.00;;;;;;5003205;28;20469;-67
2023/08/31 12:20:52;;;;;;;6.97;2.40;;;23.00;1.00;;;;;;5003027;28;20838;-67
2023/08/31 12:23:21;;;;;;;4.63;1.93;;;23.00;1.00;;;;;;5005622;28;20476;-68
2023/08/31 12:25:49;;;;;;;6.30;2.00;;;22.90;1.00;;;;;;5000849;28;20929;-68
2023/08/31 12:28:18;;;;;;;8.00;2.20;;;22.90;1.00;;;;;;5005126;28;20965;-67
2023/08/31 12:30:50;;;;;;;6.53;2.13;;;22.80;1.00;;;;;;4998780;28;20562;-67
2023/08/31 12:33:17;;;;;;;6.07;2.40;;;22.70;1.00;;;;;;5004472;28;20491;-68
2023/08/31 12:35:44;;;;;;;6.93;2.23;;;22.60;1.00;;;;;;5007091;28;20475;-68
2023/08/31 12:38:12;;;;;;;6.30;1.90;;;22.50;1.00;;;;;;5005172;28;20803;-68
2023/08/31 12:40:39;;;;;;;6.37;2.27;;;22.50;1.00;;;;;;5007829;28;20463;-68
2023/08/31 12:43:06;;;;;;;6.77;2.30;;;22.40;1.00;;;;;;5005080;28;20558;-68
2023/08/31 12:45:34;;;;;;;5.30;2.10;;;22.50;1.00;;;;;;5005095;28;20468;-68
2023/08/31 12:48:01;;;;;;;7.67;2.30;;;22.50;1.00;;;;;;5004756;28;20472;-68
2023/08/31 12:50:27;;;;;;;6.30;1.93;;;22.60;1.00;;;;;;5006457;28;20464;-68
2023/08/31 12:52:54;;;;;;;9.00;2.63;;;22.60;1.00;;;;;;5003117;28;20494;-68
2023/08/31 12:55:21;;;;;;;6.80;1.80;;;22.70;1.00;;;;;;5004372;28;20504;-68